Time;durP1;ratioP1;P1;durP2;ratioP2;P2;SDS_P1;SDS_P2;PMS_P1;PMS_P2;Temp;Humidity;BMP_temperature;BMP_pressure;BME280_temperature;BME280_humidity;BME280_pressure;Samples;Min_cycle;Max_cycle;Signal;HPM_P1;HPM_P2
2023/04/30 00:00:48;;;;;;;11.90;6.40;;;;;;;5.21;100.00;99558.29;104593;1263;61752;-47
2023/04/30 00:03:15;;;;;;;8.50;4.80;;;;;;;5.23;100.00;99562.51;104100;1257;62402;-47
2023/04/30 00:05:42;;;;;;;9.80;5.40;;;;;;;5.24;100.00;99561.95;104492;1257;71063;-47
2023/04/30 00:08:08;;;;;;;8.10;5.20;;;;;;;5.24;100.00;99563.91;104771;1263;66687;-48
2023/04/30 00:10:35;;;;;;;9.70;5.30;;;;;;;5.24;100.00;99561.94;104456;1262;73067;-49
2023/04/30 00:13:02;;;;;;;9.80;5.50;;;;;;;5.21;100.00;99561.30;104779;1262;59722;-48
2023/04/30 00:15:28;;;;;;;10.30;5.60;;;;;;;5.18;100.00;99561.42;104260;1258;60040;-51
2023/04/30 00:17:55;;;;;;;7.70;4.90;;;;;;;5.15;100.00;99555.98;104289;1254;75287;-48
2023/04/30 00:20:22;;;;;;;9.50;4.80;;;;;;;5.12;100.00;99548.97;104566;1258;70323;-48
2023/04/30 00:22:49;;;;;;;13.20;6.10;;;;;;;5.06;100.00;99547.89;104504;1254;73027;-50
2023/04/30 00:25:16;;;;;;;10.60;6.10;;;;;;;4.99;100.00;99541.87;104604;1260;59731;-46
2023/04/30 00:27:42;;;;;;;12.60;5.40;;;;;;;4.90;100.00;99544.79;104634;1258;61938;-47
2023/04/30 00:30:10;;;;;;;10.00;5.90;;;;;;;4.83;100.00;99543.05;104772;1260;73973;-50
2023/04/30 00:32:37;;;;;;;10.80;5.60;;;;;;;4.79;100.00;99543.86;104792;1254;68000;-50
2023/04/30 00:35:04;;;;;;;9.20;5.60;;;;;;;4.77;100.00;99540.55;104926;1254;73229;-49
2023/04/30 00:37:31;;;;;;;13.00;5.50;;;;;;;4.72;100.00;99536.06;105121;1254;63497;-43
2023/04/30 00:39:58;;;;;;;14.30;4.10;;;;;;;4.69;100.00;99535.46;104893;1255;62193;-45
2023/04/30 00:42:25;;;;;;;9.00;4.90;;;;;;;4.66;100.00;99533.24;104958;1257;73382;-48
2023/04/30 00:44:52;;;;;;;9.80;4.90;;;;;;;4.64;100.00;99531.86;104873;1255;67020;-46
2023/04/30 00:47:19;;;;;;;10.50;5.40;;;;;;;4.62;100.00;99529.77;104742;1259;72605;-48
2023/04/30 00:49:46;;;;;;;9.70;4.10;;;;;;;4.61;100.00;99527.85;104871;1260;62601;-48
2023/04/30 00:52:12;;;;;;;10.00;4.80;;;;;;;4.60;100.00;99523.81;104831;1254;61266;-49
2023/04/30 00:54:40;;;;;;;8.00;4.20;;;;;;;4.56;100.00;99522.13;104501;1254;73829;-49
2023/04/30 00:57:07;;;;;;;7.20;4.80;;;;;;;4.55;100.00;99516.46;104789;1256;66692;-45
2023/04/30 00:59:34;;;;;;;10.60;4.60;;;;;;;4.53;100.00;99512.59;104494;1256;73506;-48
2023/04/30 01:02:02;;;;;;;9.90;5.80;;;;;;;4.53;100.00;99514.91;104473;1254;60096;-46
2023/04/30 01:04:29;;;;;;;9.60;4.80;;;;;;;4.51;100.00;99514.42;105041;1256;62816;-47
2023/04/30 01:06:55;;;;;;;10.20;4.90;;;;;;;4.50;100.00;99510.56;104658;1254;75067;-48
2023/04/30 01:09:22;;;;;;;9.60;5.60;;;;;;;4.50;100.00;99510.58;104655;1259;68254;-47
2023/04/30 01:11:52;;;;;;;8.20;5.60;;;;;;;4.47;100.00;99513.48;104723;1257;72918;-48
2023/04/30 01:14:24;;;;;;;7.50;4.50;;;;;;;4.42;100.00;99514.16;105158;1255;60343;-48
2023/04/30 01:17:03;;;;;;;11.40;6.00;;;;;;;4.36;100.00;99516.98;106703;1258;58789;-47
2023/04/30 01:19:45;;;;;;;7.70;5.00;;;;;;;4.30;100.00;99512.19;104939;1254;73679;-49
2023/04/30 01:22:24;;;;;;;10.50;4.40;;;;;;;4.26;100.00;99515.29;104699;1257;68257;-47
2023/04/30 01:25:01;;;;;;;10.40;4.10;;;;;;;4.21;100.00;99507.27;104793;1257;72974;-45
2023/04/30 01:27:51;;;;;;;9.50;5.30;;;;;;;4.16;100.00;99512.35;104796;1254;63102;-47
2023/04/30 01:30:18;;;;;;;6.70;3.30;;;;;;;4.14;100.00;99511.90;104830;1257;62127;-45
2023/04/30 01:32:46;;;;;;;9.90;4.60;;;;;;;4.15;100.00;99513.66;104956;1260;73000;-48
2023/04/30 01:35:13;;;;;;;8.70;3.30;;;;;;;4.17;100.00;99510.74;104772;1254;70106;-47
2023/04/30 01:38:06;;;;;;;10.80;3.70;;;;;;;4.19;100.00;99509.80;104926;1258;74280;-46
2023/04/30 01:40:40;;;;;;;10.10;4.20;;;;;;;4.21;100.00;99503.54;104828;1257;60941;-47
2023/04/30 01:43:32;;;;;;;6.40;3.40;;;;;;;4.21;100.00;99499.98;104989;1254;59579;-47
2023/04/30 01:45:59;;;;;;;9.90;4.90;;;;;;;4.19;100.00;99493.64;104881;1254;71479;-48
2023/04/30 01:48:40;;;;;;;6.80;4.70;;;;;;;4.16;100.00;99493.55;104923;1259;68441;-45
2023/04/30 01:51:34;;;;;;;8.50;5.10;;;;;;;4.14;100.00;99492.37;104901;1260;73636;-50
2023/04/30 01:54:04;;;;;;;7.20;4.30;;;;;;;4.12;100.00;99490.81;108988;1254;61393;-50
2023/04/30 01:56:36;;;;;;;7.00;4.20;;;;;;;4.10;100.00;99492.27;108727;1257;61529;-48
2023/04/30 01:59:04;;;;;;;7.80;4.00;;;;;;;4.07;100.00;99490.05;108773;1254;73925;-49
2023/04/30 02:01:31;;;;;;;8.50;4.90;;;;;;;4.04;100.00;99488.01;108754;1254;69249;-47
2023/04/30 02:03:58;;;;;;;5.70;3.90;;;;;;;3.99;100.00;99489.90;108887;1256;74365;-48
2023/04/30 02:06:28;;;;;;;8.70;4.40;;;;;;;3.93;100.00;99482.08;109061;1254;61325;-47
2023/04/30 02:09:01;;;;;;;9.60;4.30;;;;;;;3.85;100.00;99481.21;108946;1254;61975;-46
2023/04/30 02:11:29;;;;;;;7.90;4.00;;;;;;;3.78;100.00;99478.55;108958;1254;73597;-48
2023/04/30 02:13:56;;;;;;;12.60;3.80;;;;;;;3.74;100.00;99478.31;107275;1256;68306;-47
2023/04/30 02:16:23;;;;;;;9.00;4.40;;;;;;;3.70;100.00;99478.75;104921;1257;72974;-46
2023/04/30 02:18:50;;;;;;;8.90;3.50;;;;;;;3.70;100.00;99483.90;108931;1254;61765;-47
2023/04/30 02:21:17;;;;;;;6.20;3.00;;;;;;;3.72;100.00;99480.48;108826;1254;61338;-49
2023/04/30 02:23:44;;;;;;;7.60;2.90;;;;;;;3.75;100.00;99482.35;108855;1254;72441;-48
2023/04/30 02:26:10;;;;;;;5.90;3.90;;;;;;;3.76;100.00;99478.05;109033;1257;70373;-48
2023/04/30 02:28:37;;;;;;;6.70;4.10;;;;;;;3.76;100.00;99478.23;108950;1254;74824;-48
2023/04/30 02:31:04;;;;;;;6.50;3.40;;;;;;;3.74;100.00;99477.60;108911;1256;61895;-48
2023/04/30 02:33:31;;;;;;;7.90;4.00;;;;;;;3.72;100.00;99475.54;107463;1259;60732;-48
2023/04/30 02:35:58;;;;;;;8.40;4.30;;;;;;;3.68;100.00;99481.11;104914;1254;72837;-48
2023/04/30 02:38:25;;;;;;;7.30;4.70;;;;;;;3.66;100.00;99479.89;104870;1257;67110;-48
2023/04/30 02:40:52;;;;;;;7.90;4.50;;;;;;;3.66;100.00;99479.58;104889;1257;74735;-48
2023/04/30 02:43:19;;;;;;;7.50;4.20;;;;;;;3.63;100.00;99479.66;104899;1253;60531;-48
2023/04/30 02:45:45;;;;;;;9.60;4.50;;;;;;;3.58;100.00;99477.64;104949;1257;61074;-48
2023/04/30 02:48:13;;;;;;;8.10;5.10;;;;;;;3.53;100.00;99476.52;105206;1256;75884;-48
2023/04/30 02:50:40;;;;;;;7.00;3.80;;;;;;;3.46;100.00;99475.80;104866;1254;68792;-48
2023/04/30 02:53:07;;;;;;;9.90;4.00;;;;;;;3.39;100.00;99477.22;104888;1256;74762;-48
2023/04/30 02:55:33;;;;;;;9.00;4.80;;;;;;;3.34;100.00;99479.80;104723;1256;61508;-48
2023/04/30 02:58:00;;;;;;;8.00;4.20;;;;;;;3.30;100.00;99483.10;104815;1257;60467;-48
2023/04/30 03:00:27;;;;;;;11.40;4.60;;;;;;;3.26;100.00;99480.70;104797;1257;73922;-48
2023/04/30 03:02:54;;;;;;;5.80;3.10;;;;;;;3.24;100.00;99475.61;104633;1257;69159;-48
2023/04/30 03:05:22;;;;;;;5.90;3.60;;;;;;;3.24;100.00;99470.64;105071;1256;73007;-48
2023/04/30 03:07:48;;;;;;;6.60;4.40;;;;;;;3.26;100.00;99466.87;104880;1256;60453;-48
2023/04/30 03:10:17;;;;;;;9.90;4.80;;;;;;;3.29;100.00;99459.36;104655;1260;60464;-48
2023/04/30 03:12:44;;;;;;;11.50;4.70;;;;;;;3.30;100.00;99460.94;104880;1259;78307;-48
2023/04/30 03:15:11;;;;;;;6.30;3.50;;;;;;;3.30;100.00;99460.95;104678;1254;70540;-49
2023/04/30 03:17:38;;;;;;;11.80;4.40;;;;;;;3.30;100.00;99460.23;104536;1261;74537;-49
2023/04/30 03:20:06;;;;;;;10.10;5.10;;;;;;;3.31;100.00;99464.81;104660;1260;61410;-49
2023/04/30 03:22:33;;;;;;;6.30;4.00;;;;;;;3.34;100.00;99462.42;104960;1254;61613;-49
2023/04/30 03:25:00;;;;;;;11.30;4.80;;;;;;;3.39;100.00;99465.88;104701;1257;76108;-49
2023/04/30 03:27:26;;;;;;;6.70;3.30;;;;;;;3.42;100.00;99463.30;104748;1257;68732;-49
2023/04/30 03:29:53;;;;;;;6.80;3.90;;;;;;;3.45;100.00;99462.16;104835;1259;74943;-49
2023/04/30 03:32:20;;;;;;;3.70;2.60;;;;;;;3.49;100.00;99461.89;105304;1259;60537;-47
2023/04/30 03:34:49;;;;;;;8.70;5.30;;;;;;;3.51;100.00;99461.65;105230;1259;60566;-48
2023/04/30 03:37:15;;;;;;;8.60;4.60;;;;;;;3.55;100.00;99460.52;105157;1254;75818;-47
2023/04/30 03:39:42;;;;;;;6.80;4.20;;;;;;;3.57;100.00;99456.39;105254;1259;67781;-47
2023/04/30 03:42:09;;;;;;;8.50;4.40;;;;;;;3.57;100.00;99458.00;105139;1257;73811;-47
2023/04/30 03:44:37;;;;;;;8.20;5.00;;;;;;;3.57;100.00;99458.69;105142;1256;61680;-46
2023/04/30 03:47:04;;;;;;;9.20;5.30;;;;;;;3.56;100.00;99455.17;105194;1254;62542;-48
2023/04/30 03:49:31;;;;;;;9.50;4.20;;;;;;;3.54;100.00;99452.20;105091;1260;73723;-48
2023/04/30 03:51:58;;;;;;;13.30;4.00;;;;;;;3.55;100.00;99451.82;105332;1259;70053;-48
2023/04/30 03:54:25;;;;;;;13.30;4.80;;;;;;;3.57;100.00;99453.52;105228;1258;71479;-47
2023/04/30 03:56:52;;;;;;;8.80;4.30;;;;;;;3.60;100.00;99455.40;105279;1257;62465;-49
2023/04/30 03:59:18;;;;;;;9.10;4.20;;;;;;;3.63;100.00;99455.15;105232;1254;60521;-46
2023/04/30 04:01:45;;;;;;;7.60;4.00;;;;;;;3.68;100.00;99455.38;104856;1259;75802;-47
2023/04/30 04:04:12;;;;;;;8.40;3.20;;;;;;;3.71;100.00;99454.95;105034;1258;68851;-45
2023/04/30 04:06:39;;;;;;;5.90;3.80;;;;;;;3.77;100.00;99454.23;105462;1257;73651;-47
2023/04/30 04:09:06;;;;;;;15.50;4.70;;;;;;;3.86;100.00;99454.39;104944;1254;60907;-47
2023/04/30 04:11:33;;;;;;;7.20;3.80;;;;;;;3.93;100.00;99448.34;105161;1254;62428;-48
2023/04/30 04:14:00;;;;;;;8.60;4.10;;;;;;;3.99;100.00;99449.96;105005;1254;74604;-48
2023/04/30 04:16:27;;;;;;;17.00;4.60;;;;;;;4.04;100.00;99449.83;104987;1254;68473;-48
2023/04/30 04:18:54;;;;;;;10.70;4.60;;;;;;;4.11;100.00;99451.05;105151;1257;72887;-47
2023/04/30 04:21:21;;;;;;;8.50;4.90;;;;;;;4.19;100.00;99444.79;105065;1256;63499;-47
2023/04/30 04:23:48;;;;;;;8.40;4.40;;;;;;;4.28;100.00;99443.48;105022;1260;62046;-46
2023/04/30 04:26:18;;;;;;;10.50;4.50;;;;;;;4.37;100.00;99441.48;104997;1254;73903;-48
2023/04/30 04:28:46;;;;;;;10.20;4.70;;;;;;;4.46;100.00;99439.60;105076;1256;68421;-48
2023/04/30 04:31:13;;;;;;;6.60;4.70;;;;;;;4.56;100.00;99435.41;104934;1257;74200;-49
2023/04/30 04:33:40;;;;;;;8.00;4.10;;;;;;;4.66;100.00;99434.76;104876;1254;61872;-47
2023/04/30 04:36:07;;;;;;;10.00;3.60;;;;;;;4.76;100.00;99438.38;104884;1254;60527;-48
2023/04/30 04:38:34;;;;;;;12.80;5.10;;;;;;;4.85;100.00;99435.80;105100;1259;75936;-48
2023/04/30 04:41:01;;;;;;;7.40;3.50;;;;;;;4.92;100.00;99435.21;104921;1254;70615;-49
2023/04/30 04:43:28;;;;;;;10.00;4.00;;;;;;;5.01;100.00;99434.41;104941;1257;74825;-48
2023/04/30 04:45:55;;;;;;;9.50;5.50;;;;;;;5.10;100.00;99432.34;104994;1258;64311;-47
2023/04/30 04:48:22;;;;;;;7.60;4.40;;;;;;;5.20;100.00;99436.83;105555;1254;60641;-49
2023/04/30 04:50:49;;;;;;;7.10;3.90;;;;;;;5.29;100.00;99437.23;104815;1254;76667;-49
2023/04/30 04:53:16;;;;;;;8.10;3.80;;;;;;;5.41;100.00;99430.83;104629;1260;68281;-49
2023/04/30 04:55:42;;;;;;;12.90;4.40;;;;;;;5.53;100.00;99432.76;104881;1253;71806;-46
2023/04/30 04:58:09;;;;;;;12.80;3.00;;;;;;;5.65;100.00;99433.77;104747;1254;61516;-47
2023/04/30 05:00:38;;;;;;;5.80;3.40;;;;;;;5.77;100.00;99431.92;104937;1254;61338;-49
2023/04/30 05:03:04;;;;;;;6.80;3.40;;;;;;;5.89;100.00;99432.05;108210;1254;75720;-49
2023/04/30 05:05:31;;;;;;;4.60;1.80;;;;;;;6.03;100.00;99431.59;104935;1254;67794;-50
2023/04/30 05:07:58;;;;;;;3.60;1.70;;;;;;;6.16;100.00;99428.65;104930;1254;74789;-48
2023/04/30 05:10:25;;;;;;;2.70;1.40;;;;;;;6.29;100.00;99421.77;104966;1259;62439;-48
2023/04/30 05:12:51;;;;;;;4.80;1.60;;;;;;;6.43;100.00;99416.24;105039;1259;60640;-49
2023/04/30 05:15:18;;;;;;;2.00;1.40;;;;;;;6.56;100.00;99410.60;105005;1254;76132;-46
2023/04/30 05:17:45;;;;;;;2.40;1.20;;;;;;;6.68;100.00;99407.65;105067;1254;69644;-49
2023/04/30 05:20:12;;;;;;;3.50;1.30;;;;;;;6.78;100.00;99408.67;105133;1257;73076;-49
2023/04/30 05:22:39;;;;;;;1.80;1.20;;;;;;;6.88;100.00;99401.34;105061;1254;60536;-50
2023/04/30 05:25:06;;;;;;;2.50;0.90;;;;;;;6.97;100.00;99401.88;104867;1254;62335;-49
2023/04/30 05:27:33;;;;;;;1.70;0.80;;;;;;;7.06;100.00;99400.45;104863;1257;75547;-49
2023/04/30 05:30:00;;;;;;;5.80;0.80;;;;;;;7.14;100.00;99396.55;104884;1254;68325;-48
2023/04/30 05:32:27;;;;;;;2.60;0.80;;;;;;;7.23;100.00;99399.03;104717;1258;72797;-51
2023/04/30 05:34:54;;;;;;;2.80;0.70;;;;;;;7.32;100.00;99395.65;104742;1254;63326;-50
2023/04/30 05:37:21;;;;;;;3.80;0.70;;;;;;;7.40;100.00;99392.28;104877;1256;60322;-49
2023/04/30 05:39:48;;;;;;;1.50;0.70;;;;;;;7.49;100.00;99389.41;107396;1256;76305;-50
2023/04/30 05:42:15;;;;;;;1.10;0.60;;;;;;;7.58;100.00;99388.84;105041;1254;68391;-47
2023/04/30 05:44:41;;;;;;;1.80;0.60;;;;;;;7.70;100.00;99385.86;104707;1259;73387;-49
2023/04/30 05:47:08;;;;;;;1.50;0.50;;;;;;;7.81;100.00;99381.79;104944;1258;62204;-50
2023/04/30 05:49:35;;;;;;;2.10;0.50;;;;;;;7.93;100.00;99374.70;108991;1253;59957;-52
2023/04/30 05:52:02;;;;;;;2.80;0.40;;;;;;;8.05;100.00;99366.30;106840;1254;73725;-50
2023/04/30 05:54:29;;;;;;;2.30;0.50;;;;;;;8.15;100.00;99359.58;105150;1254;69590;-49
2023/04/30 05:56:56;;;;;;;0.50;0.30;;;;;;;8.26;100.00;99362.13;105717;1256;73787;-49
2023/04/30 05:59:23;;;;;;;0.60;0.30;;;;;;;8.34;100.00;99361.77;105033;1257;61129;-48
2023/04/30 06:01:50;;;;;;;3.60;0.40;;;;;;;8.43;100.00;99360.32;105038;1254;61548;-50
2023/04/30 06:04:17;;;;;;;3.00;0.40;;;;;;;8.52;100.00;99363.30;105677;1261;74187;-50
2023/04/30 06:06:44;;;;;;;1.20;0.30;;;;;;;8.60;100.00;99365.94;104961;1259;66050;-51
2023/04/30 06:09:11;;;;;;;0.80;0.30;;;;;;;8.67;100.00;99364.73;104757;1258;71243;-51
2023/04/30 06:11:38;;;;;;;0.60;0.30;;;;;;;8.73;100.00;99361.59;104746;1257;60550;-52
2023/04/30 06:14:09;;;;;;;2.40;0.40;;;;;;;8.79;100.00;99359.53;104790;1257;61468;-48
2023/04/30 06:16:35;;;;;;;0.40;0.30;;;;;;;8.83;100.00;99353.61;106016;1256;71770;-49
2023/04/30 06:19:02;;;;;;;1.00;0.30;;;;;;;8.88;100.00;99348.15;105051;1254;69073;-48
2023/04/30 06:21:29;;;;;;;2.40;0.30;;;;;;;8.93;100.00;99349.16;104902;1257;73099;-49
2023/04/30 06:23:56;;;;;;;1.00;0.30;;;;;;;8.99;100.00;99346.39;106022;1253;60468;-49
2023/04/30 06:26:23;;;;;;;2.80;0.60;;;;;;;9.04;100.00;99344.71;104926;1254;62910;-47
2023/04/30 06:28:49;;;;;;;1.60;0.40;;;;;;;9.08;100.00;99345.74;105016;1254;76168;-49
2023/04/30 06:31:16;;;;;;;2.30;0.40;;;;;;;9.14;100.00;99338.69;104966;1254;68714;-48
2023/04/30 06:33:43;;;;;;;0.30;0.30;;;;;;;9.18;100.00;99335.64;104993;1256;73946;-50
2023/04/30 06:36:10;;;;;;;1.10;0.40;;;;;;;9.22;100.00;99336.16;105100;1254;60473;-51
2023/04/30 06:38:36;;;;;;;0.60;0.30;;;;;;;9.26;100.00;99341.68;104916;1254;60556;-50
2023/04/30 06:41:03;;;;;;;2.90;0.40;;;;;;;9.29;100.00;99335.24;105047;1253;72511;-48
2023/04/30 06:43:30;;;;;;;0.90;0.40;;;;;;;9.33;100.00;99331.30;105001;1254;66255;-50
2023/04/30 06:45:56;;;;;;;1.80;0.40;;;;;;;9.38;100.00;99328.88;104893;1256;73149;-51
2023/04/30 06:48:23;;;;;;;1.80;0.40;;;;;;;9.42;100.00;99323.48;104900;1254;63008;-50
2023/04/30 06:50:50;;;;;;;5.70;0.40;;;;;;;9.47;100.00;99317.84;105069;1254;64059;-50
2023/04/30 06:53:17;;;;;;;0.90;0.30;;;;;;;9.54;100.00;99318.92;105017;1254;74845;-50
2023/04/30 06:55:45;;;;;;;0.90;0.40;;;;;;;9.60;100.00;99313.60;105009;1259;65654;-50
2023/04/30 06:58:12;;;;;;;2.40;0.30;;;;;;;9.66;100.00;99314.05;104968;1254;72942;-52
2023/04/30 07:00:39;;;;;;;4.10;0.20;;;;;;;9.69;100.00;99305.44;104951;1253;62295;-49
2023/04/30 07:03:06;;;;;;;0.40;0.30;;;;;;;9.71;100.00;99305.66;104938;1253;60662;-50
2023/04/30 07:05:32;;;;;;;2.00;0.40;;;;;;;9.72;100.00;99298.27;104940;1259;75538;-50
2023/04/30 07:08:00;;;;;;;2.70;0.30;;;;;;;9.73;100.00;99297.89;104961;1254;71223;-50
2023/04/30 07:10:27;;;;;;;0.40;0.30;;;;;;;9.75;100.00;99294.75;104943;1257;74793;-47
2023/04/30 07:12:54;;;;;;;1.70;0.30;;;;;;;9.77;100.00;99291.02;104992;1254;60494;-49
2023/04/30 07:15:20;;;;;;;0.40;0.30;;;;;;;9.81;100.00;99286.15;104726;1254;61040;-49
2023/04/30 07:17:47;;;;;;;1.70;0.20;;;;;;;9.84;100.00;99284.05;104948;1253;72367;-49
2023/04/30 07:20:14;;;;;;;1.90;0.20;;;;;;;9.86;100.00;99281.58;104990;1254;68203;-50
2023/04/30 07:22:44;;;;;;;0.60;0.30;;;;;;;9.90;100.00;99278.71;104919;1259;73175;-50
2023/04/30 07:25:12;;;;;;;1.40;0.30;;;;;;;9.95;100.00;99282.06;105046;1254;60465;-49
2023/04/30 07:27:39;;;;;;;2.50;0.30;;;;;;;9.97;100.00;99276.89;104760;1255;62376;-50
2023/04/30 07:30:07;;;;;;;0.80;0.30;;;;;;;9.99;100.00;99267.83;104662;1254;74432;-50
2023/04/30 07:32:35;;;;;;;0.70;0.30;;;;;;;10.03;100.00;99257.04;106308;1257;67366;-50
2023/04/30 07:35:02;;;;;;;1.20;0.20;;;;;;;10.07;100.00;99260.43;107667;1254;73977;-48
2023/04/30 07:37:29;;;;;;;2.20;0.20;;;;;;;10.11;100.00;99261.24;104782;1254;61275;-51
2023/04/30 07:39:57;;;;;;;1.00;0.30;;;;;;;10.16;100.00;99262.40;105384;1255;62656;-49
2023/04/30 07:42:24;;;;;;;0.40;0.20;;;;;;;10.18;100.00;99259.48;104614;1254;72019;-50
2023/04/30 07:44:51;;;;;;;0.60;0.10;;;;;;;10.20;100.00;99256.34;104461;1254;69107;-49
2023/04/30 07:47:18;;;;;;;0.40;0.30;;;;;;;10.21;100.00;99260.75;106852;1257;71982;-50
2023/04/30 07:49:46;;;;;;;1.40;0.20;;;;;;;10.21;100.00;99261.08;104831;1256;60621;-47
2023/04/30 07:52:13;;;;;;;3.00;0.20;;;;;;;10.22;100.00;99259.45;104770;1259;60552;-51
2023/04/30 07:54:40;;;;;;;2.00;0.20;;;;;;;10.21;100.00;99252.10;104802;1259;73910;-50
2023/04/30 07:57:06;;;;;;;1.40;0.20;;;;;;;10.23;100.00;99253.61;105017;1259;68951;-48
2023/04/30 07:59:33;;;;;;;0.50;0.20;;;;;;;10.25;100.00;99250.46;104987;1254;75480;-49
2023/04/30 08:02:00;;;;;;;0.70;0.20;;;;;;;10.29;100.00;99251.73;105053;1260;60735;-50
2023/04/30 08:04:27;;;;;;;1.90;0.20;;;;;;;10.31;100.00;99252.15;105248;1254;60517;-48
2023/04/30 08:06:54;;;;;;;0.40;0.20;;;;;;;10.32;100.00;99250.29;105947;1254;74961;-47
2023/04/30 08:09:21;;;;;;;0.90;0.20;;;;;;;10.32;100.00;99245.05;104968;1254;67798;-52
2023/04/30 08:11:47;;;;;;;1.90;0.30;;;;;;;10.34;100.00;99243.55;105038;1259;72070;-49
2023/04/30 08:14:14;;;;;;;0.50;0.20;;;;;;;10.35;100.00;99247.98;104952;1256;60658;-48
2023/04/30 08:16:41;;;;;;;0.50;0.20;;;;;;;10.36;100.00;99245.39;104932;1254;60318;-52
2023/04/30 08:19:08;;;;;;;0.60;0.30;;;;;;;10.37;100.00;99244.98;104991;1254;74849;-49
2023/04/30 08:21:34;;;;;;;1.20;0.20;;;;;;;10.39;100.00;99242.20;105095;1255;66199;-51
2023/04/30 08:24:01;;;;;;;0.70;0.20;;;;;;;10.42;100.00;99241.84;105724;1255;71302;-50
2023/04/30 08:26:28;;;;;;;1.50;0.20;;;;;;;10.44;100.00;99239.36;104801;1254;60601;-50
2023/04/30 08:28:55;;;;;;;2.60;0.20;;;;;;;10.47;100.00;99239.93;105013;1254;62639;-51
2023/04/30 08:31:21;;;;;;;0.70;0.20;;;;;;;10.48;100.00;99228.73;104618;1254;72801;-51
2023/04/30 08:33:48;;;;;;;0.60;0.20;;;;;;;10.50;100.00;99233.49;104963;1255;68465;-49
2023/04/30 08:36:15;;;;;;;1.20;0.20;;;;;;;10.52;100.00;99229.83;104988;1254;73610;-52
2023/04/30 08:38:42;;;;;;;0.40;0.20;;;;;;;10.53;100.00;99229.38;105008;1257;60514;-50
2023/04/30 08:41:12;;;;;;;1.60;0.20;;;;;;;10.53;100.00;99229.22;104974;1254;60455;-48
2023/04/30 08:43:39;;;;;;;1.10;0.20;;;;;;;10.51;100.00;99223.59;104957;1254;73748;-47
2023/04/30 08:46:06;;;;;;;1.10;0.20;;;;;;;10.50;100.00;99226.85;105007;1254;69652;-51
2023/04/30 08:48:33;;;;;;;1.30;0.30;;;;;;;10.51;100.00;99225.38;104979;1259;72823;-51
2023/04/30 08:51:01;;;;;;;1.10;0.20;;;;;;;10.51;100.00;99225.52;104947;1259;60505;-51
2023/04/30 08:53:34;;;;;;;0.30;0.20;;;;;;;10.53;100.00;99221.14;107751;1259;58833;-51
2023/04/30 08:56:00;;;;;;;1.00;0.20;;;;;;;10.53;100.00;99219.14;109074;1253;76491;-52
2023/04/30 08:58:27;;;;;;;1.60;0.20;;;;;;;10.56;100.00;99212.16;108915;1254;70270;-52
2023/04/30 09:00:58;;;;;;;0.30;0.20;;;;;;;10.59;100.00;99218.60;107839;1256;75402;-51
2023/04/30 09:03:27;;;;;;;0.40;0.30;;;;;;;10.64;100.00;99220.36;105498;1259;61491;-50
2023/04/30 09:05:54;;;;;;;3.70;0.20;;;;;;;10.67;100.00;99209.92;106341;1256;61873;-51
2023/04/30 09:08:40;;;;;;;0.50;0.20;;;;;;;10.70;100.00;99214.21;104754;1254;74013;-49
2023/04/30 09:11:27;;;;;;;1.60;0.30;;;;;;;10.75;100.00;99216.63;104838;1259;66359;-51
2023/04/30 09:13:58;;;;;;;0.40;0.20;;;;;;;10.77;100.00;99212.23;104688;1259;73825;-51
2023/04/30 09:16:26;;;;;;;0.70;0.20;;;;;;;10.77;100.00;99212.92;105780;1254;61436;-51
2023/04/30 09:18:53;;;;;;;2.90;0.30;;;;;;;10.79;100.00;99208.15;105420;1254;62369;-51
2023/04/30 09:21:33;;;;;;;0.30;0.20;;;;;;;10.84;100.00;99205.52;108943;1257;71989;-50
2023/04/30 09:24:02;;;;;;;0.50;0.20;;;;;;;10.90;100.00;99206.79;106127;1254;68461;-51
2023/04/30 09:26:36;;;;;;;0.50;0.30;;;;;;;10.93;100.00;99208.58;105315;1256;73448;-51
2023/04/30 09:29:06;;;;;;;1.40;0.30;;;;;;;10.97;100.00;99203.17;104761;1254;60529;-51
2023/04/30 09:31:35;;;;;;;1.00;0.20;;;;;;;10.99;100.00;99203.53;104507;1254;60662;-51
2023/04/30 09:34:03;;;;;;;2.30;0.30;;;;;;;11.01;100.00;99192.29;104915;1258;72114;-48
2023/04/30 09:36:30;;;;;;;1.60;0.20;;;;;;;11.05;100.00;99190.81;104582;1259;66682;-51
2023/04/30 09:39:07;;;;;;;4.80;0.30;;;;;;;11.12;100.00;99190.23;105040;1253;73069;-49
2023/04/30 09:41:37;;;;;;;1.80;0.30;;;;;;;11.17;100.00;99194.20;105512;1254;60657;-51
2023/04/30 09:44:03;;;;;;;0.30;0.20;;;;;;;11.21;100.00;99186.45;104883;1254;62838;-52
2023/04/30 09:46:31;;;;;;;2.30;0.30;;;;;;;11.26;100.00;99185.95;104847;1254;76164;-52
2023/04/30 09:48:59;;;;;;;3.80;0.30;;;;;;;11.33;100.00;99182.27;105468;1256;70486;-51
2023/04/30 09:51:26;;;;;;;1.00;0.20;;;;;;;11.41;100.00;99186.15;104990;1257;72946;-52
2023/04/30 09:53:53;;;;;;;1.10;0.30;;;;;;;11.49;100.00;99184.60;104852;1258;60811;-52
2023/04/30 09:56:22;;;;;;;0.50;0.20;;;;;;;11.57;100.00;99186.26;105026;1259;232583;-52
2023/04/30 10:00:26;;;;;;;0.20;0.20;;;;;;;11.64;100.00;99181.86;101944;1291;600424;-50
2023/04/30 10:02:53;;;;;;;0.80;0.10;;;;;;;11.62;100.00;99186.80;104640;1257;59368;-51
2023/04/30 10:05:20;;;;;;;0.60;0.20;;;;;;;11.62;100.00;99183.73;105066;1258;60215;-49
2023/04/30 10:07:46;;;;;;;0.30;0.20;;;;;;;11.62;100.00;99185.90;104523;1257;71247;-47
2023/04/30 10:10:13;;;;;;;1.30;0.30;;;;;;;11.65;100.00;99179.10;104566;1264;69920;-48
2023/04/30 10:12:48;;;;;;;0.80;0.20;;;;;;;11.70;100.00;99172.82;104453;1267;73264;-48
2023/04/30 10:15:38;;;;;;;0.50;0.30;;;;;;;11.79;100.00;99171.93;104673;1257;164667;-50
2023/04/30 10:18:13;;;;;;;0.40;0.20;;;;;;;11.85;100.00;99174.99;106121;1259;59557;-51
2023/04/30 10:20:40;;;;;;;0.40;0.20;;;;;;;11.89;100.00;99173.33;104935;1257;72140;-47
2023/04/30 10:23:07;;;;;;;0.90;0.20;;;;;;;11.91;100.00;99162.38;104636;1257;70288;-47
2023/04/30 10:25:34;;;;;;;3.20;0.20;;;;;;;11.93;100.00;99157.02;104644;1263;73115;-50
2023/04/30 10:28:00;;;;;;;0.70;0.20;;;;;;;11.97;100.00;99159.65;104848;1257;61224;-48
2023/04/30 10:30:30;;;;;;;8.50;0.20;;;;;;;12.04;100.00;99151.28;104825;1256;60773;-50
2023/04/30 10:33:24;;;;;;;1.60;0.30;;;;;;;12.13;100.00;99157.90;104933;1258;73304;-48
2023/04/30 10:35:59;;;;;;;2.60;0.30;;;;;;;12.20;100.00;99151.21;105029;1257;69770;-51
2023/04/30 10:38:27;;;;;;;1.50;0.20;;;;;;;12.16;100.00;99149.65;104877;1256;73013;-51
2023/04/30 10:40:58;;;;;;;1.30;0.20;;;;;;;12.13;100.00;99153.05;104992;1262;59713;-49
2023/04/30 10:43:25;;;;;;;1.10;0.30;;;;;;;12.14;100.00;99147.80;104959;1257;61167;-49
2023/04/30 10:45:52;;;;;;;0.50;0.30;;;;;;;12.13;100.00;99150.33;104790;1257;72065;-48
2023/04/30 10:48:24;;;;;;;1.20;0.10;;;;;;;12.16;100.00;99153.09;104845;1257;70124;-49
2023/04/30 10:50:52;;;;;;;3.00;0.60;;;;;;;12.17;100.00;99151.53;104664;1258;71847;-50
2023/04/30 10:53:19;;;;;;;1.20;0.30;;;;;;;12.13;100.00;99150.75;104553;1260;61505;-49
2023/04/30 10:55:49;;;;;;;1.10;0.20;;;;;;;12.05;100.00;99153.73;104591;1257;59666;-50
2023/04/30 10:58:29;;;;;;;0.20;0.10;;;;;;;11.98;100.00;99150.42;104638;1257;75598;-50
2023/04/30 11:01:07;;;;;;;1.70;0.20;;;;;;;11.95;100.00;99148.63;104727;1256;69975;-48
2023/04/30 11:03:34;;;;;;;0.90;0.40;;;;;;;11.95;100.00;99140.93;106210;1258;73221;-50
2023/04/30 11:06:14;;;;;;;0.50;0.30;;;;;;;11.97;100.00;99138.09;104862;1258;61318;-50
2023/04/30 11:08:43;;;;;;;2.30;0.20;;;;;;;12.00;100.00;99136.48;106557;1258;60540;-50
2023/04/30 11:11:10;;;;;;;2.70;0.10;;;;;;;12.03;100.00;99142.73;104767;1257;74942;-50
2023/04/30 11:13:41;;;;;;;0.30;0.20;;;;;;;12.07;100.00;99139.03;104714;1261;66229;-49
2023/04/30 11:16:07;;;;;;;1.90;0.30;;;;;;;12.09;100.00;99138.73;104815;1257;74990;-50
2023/04/30 11:18:43;;;;;;;1.20;0.20;;;;;;;12.09;100.00;99136.90;104806;1256;62652;-52
2023/04/30 11:21:10;;;;;;;0.40;0.20;;;;;;;12.11;100.00;99143.31;104533;1260;59750;-51
2023/04/30 11:23:44;;;;;;;0.40;0.20;;;;;;;12.11;100.00;99143.61;108781;1256;75724;-51
2023/04/30 11:26:10;;;;;;;3.10;0.20;;;;;;;12.09;100.00;99138.77;108819;1256;70126;-51
2023/04/30 11:28:37;;;;;;;0.30;0.20;;;;;;;12.07;100.00;99134.02;108805;1257;73567;-51